KCRP/CRP METAR and TAF weather

Enter ICAO airport designator
Station Type Date Time Source
KCRP METAR 2022/01/29 01:51 UTC NOAA

KCRP 290151Z 01009KT 10SM FEW250 08/01 A3047 RMK AO2 SLP319 T00780011


Station Type Date Time Source
KCRP Decoded METAR 2022/01/29 01:51 UTC NOAA

CORPUS CHRISTI INTERNATIONAL , TX, United States (KCRP) 27-46N 97-31W 16M
Jan 28, 2022 - 08:51 PM EST / 2022.01.29 0151 UTC
Wind: from the N (010 degrees) at 10 MPH (9 KT):0
Visibility: 10 mile(s):0
Sky conditions: mostly clear
Temperature: 46.0 F (7.8 C)
Dew Point: 34.0 F (1.1 C)
Relative Humidity: 62%
Pressure (altimeter): 30.47 in. Hg (1031 hPa)
ob: KCRP 290151Z 01009KT 10SM FEW250 08/01 A3047 RMK AO2 SLP319 T00780011
cycle: 2

Station Type Date Time Source
KCRP TAF 2022/01/28 18:39 UTC NOAA

TAF KCRP 281736Z 2818/2918 01014G20KT P6SM FEW030 OVC050
FM282200 02009KT P6SM FEW040 SCT120
FM290400 VRB04KT P6SM FEW250
FM291600 20007KT P6SM FEW250

Example: see airport list